createdAt,value
2019-05-19T00:24:59.797Z,19.40
2019-05-19T00:42:16.478Z,20.70
2019-05-19T00:59:33.620Z,16.13
2019-05-19T01:07:51.196Z,15.43
2019-05-19T01:16:08.679Z,15.83
2019-05-19T01:24:26.239Z,15.32
2019-05-19T01:33:14.066Z,14.47
2019-05-19T01:41:31.548Z,15.07
2019-05-19T01:49:49.165Z,14.83
2019-05-19T01:58:07.015Z,14.43
2019-05-19T02:06:24.482Z,13.77
2019-05-19T02:14:41.906Z,14.70
2019-05-19T02:22:59.382Z,13.30
2019-05-19T02:31:17.130Z,12.83
2019-05-19T02:39:34.894Z,12.77
2019-05-19T02:47:53.146Z,12.10
2019-05-19T02:56:10.908Z,13.00
2019-05-19T03:04:28.404Z,12.87
2019-05-19T03:12:45.910Z,11.63
2019-05-19T03:21:11.252Z,12.53
2019-05-19T03:29:27.313Z,12.60
2019-05-19T03:37:44.799Z,11.27
2019-05-19T03:46:02.291Z,12.63
2019-05-19T03:54:19.767Z,13.03
2019-05-19T04:02:37.382Z,12.98
2019-05-19T04:10:54.990Z,11.80
2019-05-19T04:19:12.569Z,10.53
2019-05-19T04:27:30.076Z,11.40
2019-05-19T04:35:47.514Z,12.10
2019-05-19T04:44:04.982Z,12.77
2019-05-19T04:52:22.503Z,10.60
2019-05-19T05:09:40.133Z,11.70
2019-05-19T05:17:57.771Z,11.17
2019-05-19T05:26:15.657Z,10.93
2019-05-19T05:35:03.601Z,12.23
2019-05-19T05:43:21.393Z,12.60
2019-05-19T05:51:38.899Z,11.77
2019-05-19T05:59:56.687Z,12.00
2019-05-19T06:08:29.166Z,12.43
2019-05-19T06:25:31.127Z,11.90
2019-05-19T06:42:38.819Z,11.80
2019-05-19T06:59:55.867Z,10.70
2019-05-19T07:08:43.880Z,11.73
2019-05-19T07:17:02.013Z,10.60
2019-05-19T07:25:53.101Z,10.27
2019-05-19T07:34:10.962Z,10.07
2019-05-19T07:42:55.924Z,8.90
2019-05-19T07:51:13.629Z,8.67
2019-05-19T07:59:31.230Z,9.43
2019-05-19T08:08:09.990Z,8.47
2019-05-19T08:25:18.316Z,7.33
2019-05-19T08:33:35.893Z,7.80
2019-05-19T08:42:26.941Z,7.70
2019-05-19T08:51:17.777Z,6.70
2019-05-19T08:59:35.314Z,7.00
2019-05-19T09:08:23.293Z,7.00
2019-05-19T09:16:41.348Z,7.03
2019-05-19T09:25:26.229Z,7.30
2019-05-19T09:33:46.435Z,6.97
2019-05-19T09:42:27.807Z,4.97
2019-05-19T09:51:14.117Z,4.93
2019-05-19T09:59:31.620Z,5.87
2019-05-19T10:08:07.484Z,6.13
2019-05-19T10:16:46.110Z,4.70
2019-05-19T10:25:21.798Z,5.80
2019-05-19T10:33:49.419Z,5.77
2019-05-19T10:42:18.637Z,6.10
2019-05-19T10:50:53.653Z,5.70
2019-05-19T10:59:12.531Z,5.87
2019-05-19T11:08:03.665Z,5.90
2019-05-19T11:16:33.218Z,6.17
2019-05-19T11:25:09.014Z,6.10
2019-05-19T11:33:35.340Z,5.73
2019-05-19T11:42:16.688Z,10.43
2019-05-19T11:50:42.344Z,6.53
2019-05-19T11:59:00.037Z,7.30
2019-05-19T12:07:47.993Z,7.00
2019-05-19T12:16:23.777Z,6.35
2019-05-19T12:24:50.717Z,7.60
2019-05-19T12:33:30.297Z,6.93
2019-05-19T12:41:59.657Z,7.57
2019-05-19T12:50:17.323Z,8.00
2019-05-19T12:58:34.781Z,6.73
2019-05-19T13:15:52.173Z,6.57
2019-05-19T13:24:49.015Z,6.90
2019-05-19T13:33:21.718Z,6.00
2019-05-19T13:41:57.585Z,7.17
2019-05-19T13:50:27.497Z,7.33
2019-05-19T13:58:44.925Z,6.60
2019-05-19T14:07:39.212Z,8.37
2019-05-19T14:16:08.291Z,8.78
2019-05-19T14:24:44.037Z,8.53
2019-05-19T14:33:01.798Z,7.40
2019-05-19T14:41:53.664Z,10.40
2019-05-19T14:50:20.409Z,9.93
2019-05-19T14:58:38.025Z,9.73
2019-05-19T15:07:38.463Z,8.37
2019-05-19T15:15:58.025Z,11.27
2019-05-19T15:24:51.380Z,11.20
2019-05-19T15:33:08.829Z,11.77
2019-05-19T15:41:59.630Z,12.57
2019-05-19T15:50:17.158Z,9.80
2019-05-19T15:58:34.593Z,11.90
2019-05-19T16:07:22.397Z,11.73
2019-05-19T16:16:07.573Z,11.63
2019-05-19T16:24:28.111Z,10.30
2019-05-19T16:33:16.315Z,10.40
2019-05-19T16:41:33.793Z,8.73
2019-05-19T16:58:51.131Z,9.20
2019-05-19T17:07:08.761Z,9.67
2019-05-19T17:15:26.840Z,10.00
2019-05-19T17:23:44.850Z,10.90
2019-05-19T17:32:05.939Z,11.77
2019-05-19T17:40:21.594Z,10.93
2019-05-19T17:48:39.086Z,12.10
2019-05-19T17:56:58.008Z,14.03
2019-05-19T18:05:16.559Z,12.33
2019-05-19T18:13:34.081Z,12.73
2019-05-19T18:21:51.803Z,12.73
2019-05-19T18:30:09.718Z,10.93
2019-05-19T18:38:27.261Z,12.97
2019-05-19T18:46:44.777Z,11.17
2019-05-19T18:55:04.230Z,9.97
2019-05-19T19:03:21.489Z,10.53
2019-05-19T19:11:38.964Z,9.90
2019-05-19T19:19:56.459Z,9.67
2019-05-19T19:28:13.912Z,10.97
2019-05-19T19:36:31.405Z,11.10
2019-05-19T19:44:48.844Z,9.80
2019-05-19T19:53:06.415Z,9.70
2019-05-19T20:01:23.949Z,9.77
2019-05-19T20:09:41.404Z,9.85
2019-05-19T20:17:58.848Z,11.17
2019-05-19T20:26:16.296Z,9.63
2019-05-19T20:34:33.760Z,11.37
2019-05-19T20:42:51.288Z,13.63
2019-05-19T20:51:08.786Z,13.20
2019-05-19T20:59:26.282Z,15.67
2019-05-19T21:07:43.776Z,17.10
2019-05-19T21:16:01.339Z,15.50
2019-05-19T21:24:18.800Z,17.03
2019-05-19T21:32:36.277Z,15.03
2019-05-19T21:40:53.852Z,17.13
2019-05-19T21:49:11.343Z,16.83
2019-05-19T21:57:28.843Z,17.30
2019-05-19T22:05:53.545Z,16.40
2019-05-19T22:14:05.748Z,16.67
2019-05-19T22:22:23.183Z,16.10
2019-05-19T22:30:40.694Z,15.60
2019-05-19T22:38:58.173Z,16.17
2019-05-19T22:47:15.737Z,17.43
2019-05-19T22:55:33.211Z,18.47
2019-05-19T23:03:50.760Z,19.13
2019-05-19T23:12:08.353Z,16.67
2019-05-19T23:20:25.845Z,16.77
2019-05-19T23:28:43.282Z,17.23
2019-05-19T23:37:00.753Z,17.30
2019-05-19T23:45:18.210Z,16.97
2019-05-19T23:53:35.704Z,17.30
